Time,TemperatureF,DewpointF,PressureIn,WindDirection,WindDirectionDegrees,WindSpeedMPH,WindSpeedGustMPH,Humidity,HourlyPrecipIn,Conditions,Clouds,dailyrainin,SoftwareType,DateUTC
2013-05-02 00:01:00,30.0,10.0,-100.00,WNW,284,4.0,5.0,42,-99.99,,,-99.99,,2013-05-02 06:01:00,
2013-05-02 00:12:00,28.0,11.0,-100.00,West,272,6.0,7.0,47,-99.99,,,-99.99,,2013-05-02 06:12:00,
2013-05-02 00:21:00,28.0,11.0,-100.00,WNW,285,5.0,7.0,48,-99.99,,,-99.99,,2013-05-02 06:21:00,
2013-05-02 00:31:00,28.0,11.0,-100.00,WNW,285,5.0,7.0,48,-99.99,,,-99.99,,2013-05-02 06:31:00,
2013-05-02 00:42:00,28.0,11.0,-100.00,WNW,285,5.0,7.0,48,-99.99,,,-99.99,,2013-05-02 06:42:00,
2013-05-02 00:52:00,28.0,11.0,-100.00,NW,306,2.0,4.0,46,-99.99,,,-99.99,,2013-05-02 06:52:00,
2013-05-02 01:01:00,28.0,11.0,-100.00,NW,306,2.0,4.0,46,-99.99,,,-99.99,,2013-05-02 07:01:00,
2013-05-02 01:11:00,26.0,12.0,-100.00,West,272,4.0,5.0,53,-99.99,,,-99.99,,2013-05-02 07:11:00,
2013-05-02 01:21:00,26.0,12.0,-100.00,West,270,5.0,5.0,54,-99.99,,,-99.99,,2013-05-02 07:21:00,
2013-05-02 01:31:00,26.0,12.0,-100.00,West,270,5.0,5.0,54,-99.99,,,-99.99,,2013-05-02 07:31:00,
2013-05-02 01:41:00,26.0,12.0,-100.00,West,270,5.0,5.0,54,-99.99,,,-99.99,,2013-05-02 07:41:00,
2013-05-02 01:52:00,25.0,13.0,-100.00,NW,316,0.0,4.0,59,-99.99,,,-99.99,,2013-05-02 07:52:00,
2013-05-02 02:02:00,25.0,13.0,-100.00,NW,316,0.0,4.0,59,-99.99,,,-99.99,,2013-05-02 08:02:00,
2013-05-02 02:11:00,25.0,13.0,-100.00,NW,314,0.0,2.0,59,-99.99,,,-99.99,,2013-05-02 08:11:00,
2013-05-02 02:21:00,26.0,13.0,-100.00,NW,310,0.0,2.0,57,-99.99,,,-99.99,,2013-05-02 08:21:00,
2013-05-02 02:32:00,26.0,13.0,-100.00,NW,310,0.0,2.0,57,-99.99,,,-99.99,,2013-05-02 08:32:00,
2013-05-02 02:42:00,25.0,13.0,-100.00,NW,316,2.0,2.0,60,-99.99,,,-99.99,,2013-05-02 08:42:00,
2013-05-02 02:52:00,25.0,13.0,-100.00,NW,308,0.0,3.0,60,-99.99,,,-99.99,,2013-05-02 08:52:00,
2013-05-02 03:02:00,25.0,13.0,-100.00,NW,308,0.0,3.0,60,-99.99,,,-99.99,,2013-05-02 09:02:00,
2013-05-02 03:11:00,23.0,13.0,-100.00,NW,307,3.0,3.0,66,-99.99,,,-99.99,,2013-05-02 09:11:00,
2013-05-02 03:21:00,22.0,13.0,-100.00,West,267,4.0,4.0,67,-99.99,,,-99.99,,2013-05-02 09:21:00,
2013-05-02 03:32:00,22.0,13.0,-100.00,West,267,4.0,4.0,67,-99.99,,,-99.99,,2013-05-02 09:32:00,
2013-05-02 03:42:00,22.0,13.0,-100.00,WNW,284,3.0,5.0,68,-99.99,,,-99.99,,2013-05-02 09:42:00,
2013-05-02 03:52:00,21.0,13.0,-100.00,WNW,284,0.0,3.0,69,-99.99,,,-99.99,,2013-05-02 09:52:00,
2013-05-02 04:02:00,21.0,13.0,-100.00,WNW,284,0.0,3.0,69,-99.99,,,-99.99,,2013-05-02 10:02:00,
2013-05-02 04:12:00,20.0,13.0,-100.00,North,0,0.0,2.0,72,-99.99,,,-99.99,,2013-05-02 10:12:00,
2013-05-02 04:22:00,20.0,12.0,-100.00,WNW,286,0.0,1.0,72,-99.99,,,-99.99,,2013-05-02 10:22:00,
2013-05-02 04:32:00,20.0,12.0,-100.00,WNW,286,0.0,1.0,72,-99.99,,,-99.99,,2013-05-02 10:32:00,
2013-05-02 04:42:00,20.0,13.0,-100.00,North,0,0.0,0.0,73,-99.99,,,-99.99,,2013-05-02 10:42:00,
2013-05-02 04:52:00,20.0,12.0,-100.00,NNW,334,0.0,1.0,73,-99.99,,,-99.99,,2013-05-02 10:52:00,
2013-05-02 05:02:00,20.0,12.0,-100.00,NNW,334,0.0,1.0,73,-99.99,,,-99.99,,2013-05-02 11:02:00,
2013-05-02 05:11:00,19.0,11.0,-100.00,NNW,334,0.0,2.0,72,-99.99,,,-99.99,,2013-05-02 11:11:00,
2013-05-02 05:21:00,19.0,13.0,-100.00,NNW,334,0.0,1.0,74,-99.99,,,-99.99,,2013-05-02 11:21:00,
2013-05-02 05:32:00,19.0,13.0,-100.00,NNW,334,0.0,1.0,74,-99.99,,,-99.99,,2013-05-02 11:32:00,
2013-05-02 05:41:00,18.0,11.0,-100.00,NE,55,2.0,3.0,75,-99.99,,,-99.99,,2013-05-02 11:41:00,
2013-05-02 05:52:00,18.0,12.0,-100.00,NE,55,1.0,2.0,75,-99.99,,,-99.99,,2013-05-02 11:52:00,
2013-05-02 06:01:00,18.0,12.0,-100.00,NE,55,1.0,2.0,75,-99.99,,,-99.99,,2013-05-02 12:01:00,
2013-05-02 06:11:00,18.0,11.0,-100.00,NE,44,3.0,4.0,74,-99.99,,,-99.99,,2013-05-02 12:11:00,
2013-05-02 06:21:00,17.0,11.0,-100.00,North,0,0.0,2.0,75,-99.99,,,-99.99,,2013-05-02 12:21:00,
2013-05-02 06:32:00,17.0,11.0,-100.00,North,0,0.0,2.0,75,-99.99,,,-99.99,,2013-05-02 12:32:00,
2013-05-02 06:42:00,17.0,11.0,-100.00,North,0,0.0,2.0,75,-99.99,,,-99.99,,2013-05-02 12:42:00,
2013-05-02 06:52:00,18.0,12.0,-100.00,East,85,1.0,3.0,77,-99.99,,,-99.99,,2013-05-02 12:52:00,
2013-05-02 07:01:00,18.0,12.0,-100.00,East,85,1.0,3.0,77,-99.99,,,-99.99,,2013-05-02 13:01:00,
2013-05-02 07:11:00,18.0,11.0,-100.00,East,84,1.0,2.0,76,-99.99,,,-99.99,,2013-05-02 13:11:00,
2013-05-02 07:21:00,18.0,12.0,-100.00,East,82,1.0,2.0,75,-99.99,,,-99.99,,2013-05-02 13:21:00,
2013-05-02 07:31:00,18.0,12.0,-100.00,East,82,1.0,2.0,75,-99.99,,,-99.99,,2013-05-02 13:31:00,
2013-05-02 07:41:00,20.0,13.0,-100.00,East,81,1.0,2.0,74,-99.99,,,-99.99,,2013-05-02 13:41:00,
2013-05-02 07:52:00,20.0,13.0,-100.00,East,80,1.0,3.0,74,-99.99,,,-99.99,,2013-05-02 13:52:00,
2013-05-02 08:02:00,20.0,13.0,-100.00,East,80,1.0,3.0,74,-99.99,,,-99.99,,2013-05-02 14:02:00,
2013-05-02 08:11:00,22.0,15.0,-100.00,NE,49,1.0,3.0,72,-99.99,,,-99.99,,2013-05-02 14:11:00,
2013-05-02 08:21:00,24.0,15.0,-100.00,ENE,62,2.0,4.0,68,-99.99,,,-99.99,,2013-05-02 14:21:00,
2013-05-02 08:31:00,24.0,15.0,-100.00,ENE,62,2.0,4.0,68,-99.99,,,-99.99,,2013-05-02 14:31:00,
2013-05-02 08:42:00,26.0,16.0,-100.00,ENE,63,3.0,4.0,65,-99.99,,,-99.99,,2013-05-02 14:42:00,
2013-05-02 08:52:00,27.0,17.0,-100.00,ENE,66,3.0,4.0,64,-99.99,,,-99.99,,2013-05-02 14:52:00,
2013-05-02 09:02:00,27.0,17.0,-100.00,ENE,66,3.0,4.0,64,-99.99,,,-99.99,,2013-05-02 15:02:00,
2013-05-02 09:12:00,30.0,18.0,-100.00,East,100,3.0,5.0,60,-99.99,,,-99.99,,2013-05-02 15:12:00,
2013-05-02 09:21:00,32.0,19.0,-100.00,East,90,2.0,5.0,58,-99.99,,,-99.99,,2013-05-02 15:21:00,
2013-05-02 09:32:00,32.0,19.0,-100.00,East,90,2.0,5.0,58,-99.99,,,-99.99,,2013-05-02 15:32:00,
2013-05-02 09:43:00,34.0,19.0,-100.00,ESE,115,2.0,4.0,51,-99.99,,,-99.99,,2013-05-02 15:43:00,
2013-05-02 10:13:00,38.0,5.0,-100.00,SSE,158,6.0,7.0,25,-99.99,,,-99.99,,2013-05-02 16:13:00,
2013-05-02 10:22:00,39.0,6.0,-100.00,South,184,2.0,7.0,24,-99.99,,,-99.99,,2013-05-02 16:22:00,
2013-05-02 10:32:00,39.0,6.0,-100.00,South,184,2.0,7.0,24,-99.99,,,-99.99,,2013-05-02 16:32:00,
2013-05-02 10:42:00,40.0,4.0,-100.00,ESE,116,0.0,8.0,22,-99.99,,,-99.99,,2013-05-02 16:42:00,
2013-05-02 10:52:00,41.0,3.0,-100.00,NNE,29,6.0,10.0,20,-99.99,,,-99.99,,2013-05-02 16:52:00,
2013-05-02 11:02:00,41.0,3.0,-100.00,NNE,29,6.0,10.0,20,-99.99,,,-99.99,,2013-05-02 17:02:00,
2013-05-02 11:12:00,41.0,3.0,-100.00,North,355,4.0,13.0,19,-99.99,,,-99.99,,2013-05-02 17:12:00,
2013-05-02 11:22:00,41.0,3.0,-100.00,North,355,4.0,13.0,19,-99.99,,,-99.99,,2013-05-02 17:22:00,
2013-05-02 11:31:00,41.0,2.0,-100.00,ENE,68,8.0,16.0,19,-99.99,,,-99.99,,2013-05-02 17:31:00,
2013-05-02 11:42:00,42.0,3.0,-100.00,NE,54,5.0,13.0,18,-99.99,,,-99.99,,2013-05-02 17:42:00,
2013-05-02 11:51:00,43.0,3.0,-100.00,NNE,14,8.0,13.0,18,-99.99,,,-99.99,,2013-05-02 17:51:00,
2013-05-02 12:01:00,43.0,3.0,-100.00,NNE,14,8.0,13.0,18,-99.99,,,-99.99,,2013-05-02 18:01:00,
2013-05-02 12:11:00,43.0,3.0,-100.00,NW,310,5.0,14.0,18,-99.99,,,-99.99,,2013-05-02 18:11:00,
2013-05-02 12:21:00,44.0,4.0,-100.00,ENE,68,8.0,13.0,18,-99.99,,,-99.99,,2013-05-02 18:21:00,
2013-05-02 12:31:00,44.0,4.0,-100.00,ENE,68,8.0,13.0,18,-99.99,,,-99.99,,2013-05-02 18:31:00,
2013-05-02 12:41:00,44.0,0.0,-100.00,ENE,76,6.0,17.0,15,-99.99,,,-99.99,,2013-05-02 18:41:00,
2013-05-02 12:51:00,45.0,1.0,-100.00,ESE,103,8.0,13.0,15,-99.99,,,-99.99,,2013-05-02 18:51:00,
2013-05-02 13:01:00,45.0,1.0,-100.00,ESE,103,8.0,13.0,15,-99.99,,,-99.99,,2013-05-02 19:01:00,
2013-05-02 13:11:00,46.0,6.0,-100.00,SE,129,3.0,12.0,18,-99.99,,,-99.99,,2013-05-02 19:11:00,
2013-05-02 13:21:00,47.0,4.0,-100.00,ESE,111,8.0,12.0,17,-99.99,,,-99.99,,2013-05-02 19:21:00,
2013-05-02 13:31:00,47.0,4.0,-100.00,ESE,111,8.0,12.0,17,-99.99,,,-99.99,,2013-05-02 19:31:00,
2013-05-02 13:41:00,49.0,6.0,-100.00,East,89,7.0,11.0,17,-99.99,,,-99.99,,2013-05-02 19:41:00,
2013-05-02 13:52:00,49.0,4.0,-100.00,East,89,6.0,14.0,15,-99.99,,,-99.99,,2013-05-02 19:52:00,
2013-05-02 14:02:00,49.0,4.0,-100.00,East,89,6.0,14.0,15,-99.99,,,-99.99,,2013-05-02 20:02:00,
2013-05-02 14:11:00,50.0,1.0,-100.00,East,81,9.0,13.0,13,-99.99,,,-99.99,,2013-05-02 20:11:00,
2013-05-02 14:21:00,50.0,3.0,-100.00,NNE,21,2.0,12.0,13,-99.99,,,-99.99,,2013-05-02 20:21:00,
2013-05-02 14:32:00,50.0,3.0,-100.00,NNE,21,2.0,12.0,13,-99.99,,,-99.99,,2013-05-02 20:32:00,
2013-05-02 14:41:00,52.0,2.0,-100.00,NE,41,8.0,13.0,12,-99.99,,,-99.99,,2013-05-02 20:41:00,
2013-05-02 14:52:00,51.0,1.0,-100.00,NE,50,9.0,13.0,12,-99.99,,,-99.99,,2013-05-02 20:52:00,
2013-05-02 15:01:00,51.0,1.0,-100.00,NE,50,9.0,13.0,12,-99.99,,,-99.99,,2013-05-02 21:01:00,
2013-05-02 15:11:00,51.0,0.0,-100.00,ENE,70,8.0,10.0,11,-99.99,,,-99.99,,2013-05-02 21:11:00,
2013-05-02 15:21:00,53.0,4.0,-100.00,West,279,4.0,7.0,12,-99.99,,,-99.99,,2013-05-02 21:21:00,
2013-05-02 15:33:00,53.0,4.0,-100.00,West,279,4.0,7.0,12,-99.99,,,-99.99,,2013-05-02 21:33:00,
2013-05-02 15:42:00,53.0,4.0,-100.00,WNW,292,8.0,11.0,13,-99.99,,,-99.99,,2013-05-02 21:42:00,
2013-05-02 15:53:00,53.0,3.0,-100.00,WNW,286,6.0,11.0,12,-99.99,,,-99.99,,2013-05-02 21:53:00,
2013-05-02 16:02:00,53.0,3.0,-100.00,WNW,286,6.0,11.0,12,-99.99,,,-99.99,,2013-05-02 22:02:00,
2013-05-02 16:12:00,54.0,5.0,-100.00,West,262,3.0,10.0,13,-99.99,,,-99.99,,2013-05-02 22:12:00,
2013-05-02 16:22:00,55.0,1.0,-100.00,ENE,61,6.0,10.0,10,-99.99,,,-99.99,,2013-05-02 22:22:00,
2013-05-02 16:32:00,55.0,1.0,-100.00,ENE,61,6.0,10.0,10,-99.99,,,-99.99,,2013-05-02 22:32:00,
2013-05-02 16:42:00,55.0,9.0,-100.00,West,266,14.0,17.0,15,-99.99,,,-99.99,,2013-05-02 22:42:00,
2013-05-02 16:52:00,53.0,10.0,-100.00,WNW,282,15.0,22.0,17,-99.99,,,-99.99,,2013-05-02 22:52:00,
2013-05-02 17:02:00,53.0,10.0,-100.00,WNW,282,15.0,22.0,17,-99.99,,,-99.99,,2013-05-02 23:02:00,
2013-05-02 17:11:00,54.0,11.0,-100.00,West,272,14.0,17.0,18,-99.99,,,-99.99,,2013-05-02 23:11:00,
2013-05-02 17:22:00,53.0,13.0,-100.00,West,277,14.0,19.0,19,-99.99,,,-99.99,,2013-05-02 23:22:00,
2013-05-02 17:32:00,53.0,13.0,-100.00,West,277,14.0,19.0,19,-99.99,,,-99.99,,2013-05-02 23:32:00,
2013-05-02 17:42:00,54.0,13.0,-100.00,WNW,282,13.0,16.0,19,-99.99,,,-99.99,,2013-05-02 23:42:00,
2013-05-02 17:51:00,54.0,13.0,-100.00,West,281,15.0,16.0,19,-99.99,,,-99.99,,2013-05-02 23:51:00,
2013-05-02 18:01:00,54.0,13.0,-100.00,West,281,15.0,16.0,19,-99.99,,,-99.99,,2013-05-03 00:01:00,
2013-05-02 18:11:00,54.0,13.0,-100.00,West,280,12.0,15.0,19,-99.99,,,-99.99,,2013-05-03 00:11:00,
2013-05-02 18:21:00,54.0,14.0,-100.00,West,266,11.0,16.0,20,-99.99,,,-99.99,,2013-05-03 00:21:00,
2013-05-02 18:31:00,54.0,14.0,-100.00,West,266,11.0,16.0,20,-99.99,,,-99.99,,2013-05-03 00:31:00,
2013-05-02 18:41:00,54.0,14.0,-100.00,West,266,11.0,16.0,20,-99.99,,,-99.99,,2013-05-03 00:41:00,
2013-05-02 18:52:00,53.0,15.0,-100.00,WNW,283,13.0,16.0,22,-99.99,,,-99.99,,2013-05-03 00:52:00,
2013-05-02 19:01:00,53.0,15.0,-100.00,WNW,283,13.0,16.0,22,-99.99,,,-99.99,,2013-05-03 01:01:00,
2013-05-02 19:11:00,52.0,15.0,-100.00,West,273,13.0,16.0,23,-99.99,,,-99.99,,2013-05-03 01:11:00,
2013-05-02 19:21:00,51.0,16.0,-100.00,West,279,14.0,16.0,24,-99.99,,,-99.99,,2013-05-03 01:21:00,
2013-05-02 19:31:00,50.0,16.0,-100.00,West,262,12.0,17.0,25,-99.99,,,-99.99,,2013-05-03 01:31:00,
2013-05-02 19:41:00,50.0,16.0,-100.00,West,262,12.0,17.0,25,-99.99,,,-99.99,,2013-05-03 01:41:00,
2013-05-02 19:52:00,50.0,17.0,-100.00,WSW,257,10.0,14.0,25,-99.99,,,-99.99,,2013-05-03 01:52:00,
2013-05-02 20:01:00,50.0,17.0,-100.00,WSW,257,10.0,14.0,25,-99.99,,,-99.99,,2013-05-03 02:01:00,
2013-05-02 20:11:00,50.0,17.0,-100.00,West,272,11.0,12.0,26,-99.99,,,-99.99,,2013-05-03 02:11:00,
2013-05-02 20:21:00,49.0,18.0,-100.00,WNW,289,8.0,14.0,28,-99.99,,,-99.99,,2013-05-03 02:21:00,
2013-05-02 20:31:00,49.0,18.0,-100.00,WNW,289,8.0,14.0,28,-99.99,,,-99.99,,2013-05-03 02:31:00,
2013-05-02 20:41:00,48.0,17.0,-100.00,WNW,297,12.0,15.0,29,-99.99,,,-99.99,,2013-05-03 02:41:00,
2013-05-02 20:52:00,47.0,17.0,-100.00,WNW,291,12.0,15.0,29,-99.99,,,-99.99,,2013-05-03 02:52:00,
2013-05-02 21:01:00,47.0,17.0,-100.00,WNW,291,12.0,15.0,29,-99.99,,,-99.99,,2013-05-03 03:01:00,
2013-05-02 21:11:00,46.0,17.0,-100.00,WNW,294,13.0,16.0,29,-99.99,,,-99.99,,2013-05-03 03:11:00,
2013-05-02 21:21:00,46.0,17.0,-100.00,WNW,291,9.0,13.0,30,-99.99,,,-99.99,,2013-05-03 03:21:00,
2013-05-02 21:33:00,46.0,17.0,-100.00,WNW,291,9.0,13.0,30,-99.99,,,-99.99,,2013-05-03 03:33:00,
2013-05-02 21:42:00,45.0,16.0,-100.00,WNW,300,10.0,14.0,30,-99.99,,,-99.99,,2013-05-03 03:42:00,
2013-05-02 21:52:00,44.0,17.0,-100.00,WSW,251,7.0,12.0,33,-99.99,,,-99.99,,2013-05-03 03:52:00,
2013-05-02 22:02:00,44.0,17.0,-100.00,WSW,251,7.0,12.0,33,-99.99,,,-99.99,,2013-05-03 04:02:00,
2013-05-02 22:12:00,43.0,17.0,-100.00,WNW,288,7.0,8.0,34,-99.99,,,-99.99,,2013-05-03 04:12:00,
2013-05-02 22:22:00,41.0,17.0,-100.00,West,271,6.0,7.0,37,-99.99,,,-99.99,,2013-05-03 04:22:00,
2013-05-02 22:32:00,40.0,18.0,-100.00,West,278,6.0,7.0,40,-99.99,,,-99.99,,2013-05-03 04:32:00,
2013-05-02 22:42:00,40.0,18.0,-100.00,West,278,6.0,7.0,40,-99.99,,,-99.99,,2013-05-03 04:42:00,
2013-05-02 22:52:00,39.0,18.0,-100.00,West,274,5.0,6.0,41,-99.99,,,-99.99,,2013-05-03 04:52:00,
2013-05-02 23:02:00,39.0,18.0,-100.00,West,274,5.0,6.0,41,-99.99,,,-99.99,,2013-05-03 05:02:00,
2013-05-02 23:11:00,39.0,18.0,-100.00,West,262,6.0,7.0,42,-99.99,,,-99.99,,2013-05-03 05:11:00,
2013-05-02 23:21:00,38.0,19.0,-100.00,West,271,6.0,7.0,45,-99.99,,,-99.99,,2013-05-03 05:21:00,
2013-05-02 23:32:00,38.0,19.0,-100.00,West,271,6.0,7.0,45,-99.99,,,-99.99,,2013-05-03 05:32:00,
2013-05-02 23:42:00,36.0,19.0,-100.00,West,275,0.0,1.0,50,-99.99,,,-99.99,,2013-05-03 05:42:00,
2013-05-02 23:52:00,36.0,19.0,-100.00,West,275,1.0,1.0,49,-99.99,,,-99.99,,2013-05-03 05:52:00,